createdAt,value
2019-03-27T00:00:30.279Z,13.01
2019-03-27T00:02:59.491Z,12.82
2019-03-27T00:05:28.702Z,13.45
2019-03-27T00:07:58.086Z,13.34
2019-03-27T00:10:27.441Z,13.59
2019-03-27T00:12:56.829Z,12.92
2019-03-27T00:15:26.192Z,12.15
2019-03-27T00:17:55.358Z,12.56
2019-03-27T00:20:24.754Z,12.71
2019-03-27T00:22:53.889Z,12.79
2019-03-27T00:25:23.030Z,13.82
2019-03-27T00:27:52.151Z,14.42
2019-03-27T00:30:21.298Z,14.07
2019-03-27T00:32:50.673Z,14.00
2019-03-27T00:35:19.887Z,13.23
2019-03-27T00:37:49.023Z,13.67
2019-03-27T00:40:18.175Z,13.61
2019-03-27T00:42:47.330Z,13.91
2019-03-27T00:45:26.509Z,13.73
2019-03-27T00:47:47.458Z,13.60
2019-03-27T00:50:16.891Z,13.62
2019-03-27T00:52:46.033Z,13.78
2019-03-27T00:55:15.527Z,14.23
2019-03-27T00:57:44.647Z,13.59
2019-03-27T01:00:25.017Z,13.74
2019-03-27T01:02:54.760Z,14.23
2019-03-27T01:05:24.193Z,13.94
2019-03-27T01:07:53.326Z,13.38
2019-03-27T01:10:22.801Z,13.46
2019-03-27T01:12:51.946Z,13.45
2019-03-27T01:15:21.095Z,13.72
2019-03-27T01:17:50.459Z,13.35
2019-03-27T01:20:19.602Z,13.82
2019-03-27T01:22:48.974Z,14.03
2019-03-27T01:25:18.114Z,13.93
2019-03-27T01:27:47.480Z,14.06
2019-03-27T01:30:17.387Z,12.92
2019-03-27T01:32:46.546Z,12.92
2019-03-27T01:35:15.754Z,13.62
2019-03-27T01:37:44.927Z,13.93
2019-03-27T01:40:14.254Z,13.87
2019-03-27T01:42:43.401Z,13.73
2019-03-27T01:45:12.678Z,13.46
2019-03-27T01:47:41.809Z,13.48
2019-03-27T01:50:11.140Z,13.87
2019-03-27T01:52:40.275Z,13.56
2019-03-27T01:55:10.223Z,13.67
2019-03-27T01:57:39.368Z,13.30
2019-03-27T02:00:09.663Z,13.24
2019-03-27T02:02:38.857Z,13.74
2019-03-27T02:05:08.359Z,13.72
2019-03-27T02:07:37.490Z,12.73
2019-03-27T02:10:07.708Z,13.57
2019-03-27T02:12:36.856Z,14.08
2019-03-27T02:15:06.823Z,13.74
2019-03-27T02:17:36.198Z,12.63
2019-03-27T02:20:06.015Z,13.34
2019-03-27T02:22:35.165Z,13.43
2019-03-27T02:25:04.385Z,13.19
2019-03-27T02:27:33.554Z,13.21
2019-03-27T02:30:03.447Z,12.26
2019-03-27T02:32:32.827Z,13.11
2019-03-27T02:35:01.983Z,12.98
2019-03-27T02:37:31.740Z,13.30
2019-03-27T02:40:00.909Z,13.48
2019-03-27T02:42:30.039Z,12.89
2019-03-27T02:44:59.423Z,12.97
2019-03-27T02:47:29.024Z,13.44
2019-03-27T02:49:58.163Z,13.53
2019-03-27T02:52:27.309Z,13.42
2019-03-27T02:54:56.688Z,13.37
2019-03-27T02:57:25.915Z,13.63
2019-03-27T02:59:56.046Z,13.70
2019-03-27T03:02:25.174Z,13.97
2019-03-27T03:04:54.298Z,13.55
2019-03-27T03:07:23.437Z,12.89
2019-03-27T03:09:52.576Z,12.42
2019-03-27T03:12:21.943Z,13.25
2019-03-27T03:14:51.103Z,12.90
2019-03-27T03:17:20.935Z,13.29
2019-03-27T03:19:50.593Z,13.26
2019-03-27T03:22:20.188Z,13.63
2019-03-27T03:24:49.354Z,12.96
2019-03-27T03:27:18.483Z,13.06
2019-03-27T03:29:47.717Z,13.05
2019-03-27T03:32:17.347Z,13.16
2019-03-27T03:34:46.728Z,13.05
2019-03-27T03:37:16.131Z,12.78
2019-03-27T03:39:45.249Z,13.19
2019-03-27T03:42:14.366Z,12.19
2019-03-27T03:44:43.727Z,12.13
2019-03-27T03:47:13.079Z,11.92
2019-03-27T03:49:42.748Z,12.67
2019-03-27T03:52:11.870Z,13.28
2019-03-27T03:54:41.109Z,13.19
2019-03-27T03:57:10.550Z,13.30
2019-03-27T03:59:40.940Z,13.37
2019-03-27T04:02:10.064Z,13.49
2019-03-27T04:04:39.267Z,12.90
2019-03-27T04:07:08.396Z,13.14
2019-03-27T04:09:37.539Z,12.99
2019-03-27T04:12:06.726Z,12.96
2019-03-27T04:14:35.871Z,12.71
2019-03-27T04:17:16.768Z,12.69
2019-03-27T04:19:36.086Z,13.30
2019-03-27T04:22:05.452Z,13.29
2019-03-27T04:24:34.577Z,13.21
2019-03-27T04:27:03.698Z,12.72
2019-03-27T04:29:32.813Z,12.91
2019-03-27T04:32:02.176Z,12.96
2019-03-27T04:34:31.392Z,13.12
2019-03-27T04:37:00.720Z,13.37
2019-03-27T04:39:29.932Z,12.72
2019-03-27T04:41:59.299Z,13.01
2019-03-27T04:44:28.460Z,12.65
2019-03-27T04:46:57.547Z,12.71
2019-03-27T04:49:26.678Z,12.73
2019-03-27T04:51:56.070Z,12.34
2019-03-27T04:54:27.057Z,12.90
2019-03-27T04:56:56.265Z,13.16
2019-03-27T04:59:25.391Z,13.15
2019-03-27T05:01:54.523Z,13.37
2019-03-27T05:04:24.297Z,13.09
2019-03-27T05:06:53.445Z,12.69
2019-03-27T05:09:22.805Z,12.72
2019-03-27T05:11:52.181Z,13.30
2019-03-27T05:14:21.314Z,12.67
2019-03-27T05:16:50.460Z,12.46
2019-03-27T05:19:19.628Z,12.77
2019-03-27T05:21:48.779Z,12.83
2019-03-27T05:24:17.907Z,12.86
2019-03-27T05:26:47.069Z,12.16
2019-03-27T05:29:16.195Z,12.27
2019-03-27T05:31:45.330Z,12.26
2019-03-27T05:34:14.435Z,12.24
2019-03-27T05:36:43.599Z,12.43
2019-03-27T05:39:14.588Z,12.32
2019-03-27T05:41:43.960Z,12.07
2019-03-27T05:44:13.092Z,12.18
2019-03-27T05:46:42.206Z,12.31
2019-03-27T05:49:11.340Z,12.53
2019-03-27T05:51:40.590Z,12.48
2019-03-27T05:54:09.814Z,13.03
2019-03-27T05:56:39.906Z,13.05
2019-03-27T05:59:09.336Z,12.81
2019-03-27T06:01:38.473Z,12.67
2019-03-27T06:04:07.639Z,12.63
2019-03-27T06:06:37.027Z,12.93
2019-03-27T06:09:06.998Z,12.88
2019-03-27T06:11:36.483Z,12.83
2019-03-27T06:14:05.785Z,13.07
2019-03-27T06:16:34.928Z,13.06
2019-03-27T06:19:05.540Z,13.14
2019-03-27T06:21:35.270Z,13.38
2019-03-27T06:24:05.489Z,13.24
2019-03-27T06:26:34.655Z,12.74
2019-03-27T06:29:03.894Z,13.18
2019-03-27T06:31:33.267Z,13.71
2019-03-27T06:34:02.743Z,13.92
2019-03-27T06:36:32.150Z,13.46
2019-03-27T06:39:02.085Z,13.72
2019-03-27T06:41:31.487Z,14.73
2019-03-27T06:44:00.638Z,14.35
2019-03-27T06:46:29.834Z,14.97
2019-03-27T06:48:59.083Z,15.61
2019-03-27T06:51:39.521Z,15.12
2019-03-27T06:53:59.367Z,14.41
2019-03-27T06:56:28.493Z,14.51
2019-03-27T06:58:57.724Z,13.10
2019-03-27T07:01:26.855Z,13.46
2019-03-27T07:04:09.546Z,13.64
2019-03-27T07:06:26.854Z,14.03
2019-03-27T07:08:55.974Z,13.24
2019-03-27T07:11:25.192Z,12.89
2019-03-27T07:13:54.558Z,12.56
2019-03-27T07:16:23.696Z,13.63
2019-03-27T07:18:52.830Z,12.88
2019-03-27T07:21:22.226Z,13.89
2019-03-27T07:23:51.352Z,13.51
2019-03-27T07:26:20.972Z,13.76
2019-03-27T07:28:50.366Z,13.77
2019-03-27T07:31:20.189Z,13.99
2019-03-27T07:33:49.568Z,13.12
2019-03-27T07:36:18.703Z,12.97
2019-03-27T07:38:47.866Z,14.19
2019-03-27T07:41:17.243Z,14.07
2019-03-27T07:43:46.383Z,13.11
2019-03-27T07:46:15.514Z,13.42
2019-03-27T07:48:53.705Z,14.27
2019-03-27T07:51:15.869Z,14.80
2019-03-27T07:53:45.232Z,14.87
2019-03-27T07:56:14.431Z,15.04
2019-03-27T07:58:43.814Z,15.52
2019-03-27T08:01:13.861Z,15.52
2019-03-27T08:03:43.230Z,14.85
2019-03-27T08:06:12.349Z,14.66
2019-03-27T08:08:41.482Z,14.65
2019-03-27T08:11:10.638Z,14.65
2019-03-27T08:13:39.989Z,15.98
2019-03-27T08:16:09.127Z,16.30
2019-03-27T08:18:38.974Z,15.75
2019-03-27T08:21:08.115Z,15.75
2019-03-27T08:23:37.235Z,15.26
2019-03-27T08:26:06.437Z,15.26
2019-03-27T08:28:35.821Z,15.55
2019-03-27T08:31:05.741Z,15.55
2019-03-27T08:33:35.114Z,15.10
2019-03-27T08:36:04.241Z,14.90
2019-03-27T08:38:33.452Z,15.95
2019-03-27T08:41:02.604Z,15.70
2019-03-27T08:43:31.948Z,16.01
2019-03-27T08:46:01.135Z,15.29
2019-03-27T08:48:30.255Z,15.29
2019-03-27T08:50:59.411Z,14.65
2019-03-27T08:53:28.761Z,14.65
2019-03-27T08:55:57.964Z,16.36
2019-03-27T08:58:27.091Z,16.36
2019-03-27T09:00:56.332Z,16.89
2019-03-27T09:03:25.455Z,16.92
2019-03-27T09:05:54.611Z,17.54
2019-03-27T09:08:23.746Z,19.36
2019-03-27T09:10:52.885Z,21.14
2019-03-27T09:13:23.028Z,22.53
2019-03-27T09:15:53.206Z,23.56
2019-03-27T09:18:22.596Z,20.23
2019-03-27T09:20:51.721Z,22.51
2019-03-27T09:23:21.113Z,22.74
2019-03-27T09:25:50.236Z,21.94
2019-03-27T09:28:19.393Z,21.64
2019-03-27T09:30:49.013Z,22.27
2019-03-27T09:33:18.403Z,19.51
2019-03-27T09:35:47.546Z,19.76
2019-03-27T09:38:21.939Z,20.67
2019-03-27T09:40:51.062Z,20.35
2019-03-27T09:43:20.190Z,20.75
2019-03-27T09:45:49.324Z,21.87
2019-03-27T09:48:18.467Z,22.46
2019-03-27T09:50:47.620Z,22.90
2019-03-27T09:53:17.207Z,25.16
2019-03-27T09:55:46.361Z,24.17
2019-03-27T09:58:15.493Z,26.00
2019-03-27T10:01:09.355Z,24.90
2019-03-27T10:03:38.772Z,20.96
2019-03-27T10:06:08.031Z,20.97
2019-03-27T10:08:37.501Z,19.94
2019-03-27T10:11:06.831Z,21.55
2019-03-27T10:13:35.947Z,20.30
2019-03-27T10:16:05.284Z,19.49
2019-03-27T10:18:34.443Z,18.88
2019-03-27T10:21:03.665Z,20.54
2019-03-27T10:23:32.885Z,20.95
2019-03-27T10:26:02.266Z,19.77
2019-03-27T10:28:31.397Z,20.48
2019-03-27T10:31:00.882Z,18.64
2019-03-27T10:33:30.321Z,20.18
2019-03-27T10:35:59.486Z,21.35
2019-03-27T10:38:28.668Z,21.01
2019-03-27T10:40:57.794Z,21.70
2019-03-27T10:43:26.963Z,21.34
2019-03-27T10:45:56.063Z,20.04
2019-03-27T10:48:25.231Z,18.12
2019-03-27T10:50:54.454Z,19.79
2019-03-27T10:53:23.647Z,18.27
2019-03-27T10:55:52.809Z,18.34
2019-03-27T10:58:22.001Z,18.10
2019-03-27T11:00:51.480Z,18.85
2019-03-27T11:03:20.930Z,18.69
2019-03-27T11:05:50.799Z,18.88
2019-03-27T11:08:19.987Z,19.21
2019-03-27T11:10:49.128Z,19.76
2019-03-27T11:13:18.344Z,19.82
2019-03-27T11:15:47.566Z,20.04
2019-03-27T11:18:16.931Z,19.06
2019-03-27T11:20:46.098Z,19.27
2019-03-27T11:23:15.469Z,18.32
2019-03-27T11:25:44.906Z,19.16
2019-03-27T11:28:14.026Z,18.38
2019-03-27T11:30:43.566Z,19.35
2019-03-27T11:33:13.267Z,19.26
2019-03-27T11:35:42.940Z,19.13
2019-03-27T11:38:12.190Z,17.83
2019-03-27T11:40:41.327Z,17.71
2019-03-27T11:43:10.691Z,17.84
2019-03-27T11:45:39.910Z,18.48
2019-03-27T11:48:09.219Z,18.02
2019-03-27T11:50:44.851Z,17.53
2019-03-27T11:53:09.272Z,18.75
2019-03-27T11:55:38.427Z,19.28
2019-03-27T11:58:07.564Z,18.57
2019-03-27T12:00:36.927Z,20.48
2019-03-27T12:03:06.384Z,20.22
2019-03-27T12:05:35.499Z,19.04
2019-03-27T12:08:04.708Z,18.78
2019-03-27T12:10:33.843Z,19.73
2019-03-27T12:13:03.223Z,18.60
2019-03-27T12:15:48.593Z,19.85
2019-03-27T12:18:18.857Z,19.73
2019-03-27T12:20:58.134Z,19.12
2019-03-27T12:23:18.931Z,19.09
2019-03-27T12:25:48.068Z,19.25
2019-03-27T12:28:17.295Z,19.82
2019-03-27T12:30:46.683Z,19.04
2019-03-27T12:33:15.864Z,19.21
2019-03-27T12:35:45.310Z,18.32
2019-03-27T12:38:14.534Z,19.32
2019-03-27T12:40:43.991Z,18.82
2019-03-27T12:43:13.226Z,19.12
2019-03-27T12:45:42.457Z,19.93
2019-03-27T12:48:12.201Z,19.08
2019-03-27T12:50:44.280Z,18.68
2019-03-27T12:53:14.313Z,18.93
2019-03-27T12:55:44.160Z,18.30
2019-03-27T12:58:13.801Z,18.43
2019-03-27T13:00:43.020Z,18.63
2019-03-27T13:03:12.562Z,19.72
2019-03-27T13:05:41.932Z,19.06
2019-03-27T13:08:11.302Z,18.34
2019-03-27T13:10:40.443Z,18.32
2019-03-27T13:13:09.578Z,18.56
2019-03-27T13:15:38.726Z,18.05
2019-03-27T13:18:07.939Z,19.51
2019-03-27T13:20:37.086Z,18.86
2019-03-27T13:23:06.230Z,18.30
2019-03-27T13:25:35.401Z,18.45
2019-03-27T13:28:04.934Z,19.01
2019-03-27T13:30:34.060Z,18.75
2019-03-27T13:33:03.914Z,19.36
2019-03-27T13:35:33.069Z,19.79
2019-03-27T13:38:02.211Z,19.86
2019-03-27T13:40:31.388Z,18.32
2019-03-27T13:43:00.828Z,19.20
2019-03-27T13:45:30.882Z,19.42
2019-03-27T13:48:00.271Z,18.80
2019-03-27T13:50:29.416Z,18.52
2019-03-27T13:52:58.791Z,18.59
2019-03-27T13:55:30.776Z,19.20
2019-03-27T13:57:59.665Z,18.75
2019-03-27T14:00:28.909Z,19.13
2019-03-27T14:02:58.069Z,18.64
2019-03-27T14:05:28.218Z,18.27
2019-03-27T14:07:57.608Z,18.34
2019-03-27T14:10:26.843Z,18.71
2019-03-27T14:12:56.209Z,19.10
2019-03-27T14:15:25.647Z,19.08
2019-03-27T14:17:55.036Z,18.91
2019-03-27T14:20:24.495Z,18.78
2019-03-27T14:22:54.147Z,19.24
2019-03-27T14:25:23.483Z,19.57
2019-03-27T14:27:53.108Z,19.58
2019-03-27T14:30:52.642Z,19.00
2019-03-27T14:33:21.915Z,19.37
2019-03-27T14:35:51.082Z,19.41
2019-03-27T14:38:20.321Z,20.16
2019-03-27T14:40:49.830Z,18.68
2019-03-27T14:43:18.958Z,18.42
2019-03-27T14:45:48.279Z,19.36
2019-03-27T14:48:17.427Z,18.45
2019-03-27T14:50:46.812Z,18.21
2019-03-27T14:53:16.109Z,18.39
2019-03-27T14:55:45.370Z,19.14
2019-03-27T14:58:14.567Z,19.11
2019-03-27T15:00:43.995Z,18.87
2019-03-27T15:03:13.161Z,17.82
2019-03-27T15:05:42.524Z,18.59
2019-03-27T15:08:11.690Z,19.59
2019-03-27T15:10:40.927Z,20.10
2019-03-27T15:13:10.094Z,18.99
2019-03-27T15:15:39.248Z,18.44
2019-03-27T15:18:08.392Z,18.76
2019-03-27T15:20:37.554Z,17.95
2019-03-27T15:23:06.774Z,17.91
2019-03-27T15:25:35.920Z,17.90
2019-03-27T15:28:05.296Z,18.76
2019-03-27T15:30:34.791Z,18.87
2019-03-27T15:33:04.172Z,18.27
2019-03-27T15:35:33.570Z,17.63
2019-03-27T15:38:02.723Z,17.81
2019-03-27T15:40:40.051Z,17.25
2019-03-27T15:43:09.677Z,17.75
2019-03-27T15:45:38.889Z,17.67
2019-03-27T15:48:08.047Z,17.27
2019-03-27T15:50:37.887Z,17.22
2019-03-27T15:53:07.292Z,17.99
2019-03-27T15:55:36.683Z,18.12
2019-03-27T15:58:05.970Z,17.61
2019-03-27T16:00:35.333Z,17.77
2019-03-27T16:03:04.587Z,18.12
2019-03-27T16:05:33.806Z,17.25
2019-03-27T16:08:03.213Z,16.74
2019-03-27T16:10:42.394Z,16.16
2019-03-27T16:13:11.833Z,16.15
2019-03-27T16:15:41.002Z,15.83
2019-03-27T16:18:10.148Z,16.11
2019-03-27T16:20:39.440Z,15.47
2019-03-27T16:23:08.675Z,16.37
2019-03-27T16:25:37.830Z,16.50
2019-03-27T16:28:06.997Z,16.64
2019-03-27T16:30:36.152Z,16.58
2019-03-27T16:33:05.370Z,16.74
2019-03-27T16:35:34.626Z,16.86
2019-03-27T16:38:03.784Z,16.87
2019-03-27T16:40:57.832Z,17.38
2019-03-27T16:43:27.035Z,17.08
2019-03-27T16:45:56.459Z,16.90
2019-03-27T16:48:25.619Z,17.08
2019-03-27T16:50:54.814Z,16.97
2019-03-27T16:53:23.978Z,17.02
2019-03-27T16:55:53.467Z,16.51
2019-03-27T16:58:22.621Z,17.13
2019-03-27T17:00:52.549Z,16.66
2019-03-27T17:03:21.928Z,16.88
2019-03-27T17:05:54.230Z,16.44
2019-03-27T17:08:22.031Z,17.00
2019-03-27T17:10:51.459Z,17.11
2019-03-27T17:13:20.626Z,16.62
2019-03-27T17:15:50.052Z,16.29
2019-03-27T17:18:19.275Z,16.87
2019-03-27T17:20:48.415Z,16.89
2019-03-27T17:23:18.939Z,16.72
2019-03-27T17:25:48.372Z,15.96
2019-03-27T17:28:17.877Z,16.24
2019-03-27T17:30:47.341Z,15.67
2019-03-27T17:33:17.411Z,15.20
2019-03-27T17:35:46.847Z,15.19
2019-03-27T17:38:15.995Z,15.79
2019-03-27T17:40:45.142Z,15.68
2019-03-27T17:43:14.290Z,15.68
2019-03-27T17:45:43.687Z,15.55
2019-03-27T17:48:13.090Z,15.62
2019-03-27T17:50:42.486Z,15.62
2019-03-27T17:53:11.872Z,15.33
2019-03-27T17:55:41.013Z,15.48
2019-03-27T17:58:10.131Z,15.48
2019-03-27T18:00:53.474Z,15.16
2019-03-27T18:03:22.620Z,15.17
2019-03-27T18:05:51.870Z,15.04
2019-03-27T18:08:21.087Z,15.17
2019-03-27T18:10:56.679Z,14.86
2019-03-27T18:13:26.287Z,15.29
2019-03-27T18:15:55.989Z,15.01
2019-03-27T18:18:25.127Z,14.47
2019-03-27T18:20:54.320Z,13.83
2019-03-27T18:23:23.719Z,14.60
2019-03-27T18:25:52.956Z,14.68
2019-03-27T18:28:22.345Z,14.79
2019-03-27T18:30:51.539Z,14.71
2019-03-27T18:33:20.664Z,14.44
2019-03-27T18:35:49.815Z,14.82
2019-03-27T18:38:19.029Z,14.77
2019-03-27T18:40:48.196Z,14.41
2019-03-27T18:43:17.896Z,13.87
2019-03-27T18:45:47.143Z,14.06
2019-03-27T18:48:16.500Z,14.14
2019-03-27T18:50:45.729Z,13.74
2019-03-27T18:53:15.265Z,14.25
2019-03-27T18:55:44.439Z,13.82
2019-03-27T18:58:16.757Z,13.70
2019-03-27T19:01:05.167Z,13.71
2019-03-27T19:03:34.382Z,13.04
2019-03-27T19:06:14.911Z,13.00
2019-03-27T19:08:44.037Z,12.77
2019-03-27T19:11:32.144Z,12.81
2019-03-27T19:14:01.504Z,13.07
2019-03-27T19:16:30.644Z,13.37
2019-03-27T19:21:29.306Z,13.15
2019-03-27T19:23:58.388Z,13.33
2019-03-27T19:26:29.195Z,13.42
2019-03-27T19:28:58.375Z,12.44
2019-03-27T19:31:27.557Z,13.62
2019-03-27T19:33:56.951Z,13.53
2019-03-27T19:36:26.117Z,13.72
2019-03-27T19:38:55.342Z,13.46
2019-03-27T19:41:24.691Z,13.57
2019-03-27T19:43:54.148Z,13.47
2019-03-27T19:46:23.335Z,13.64
2019-03-27T19:48:52.627Z,13.65
2019-03-27T19:51:22.164Z,13.99
2019-03-27T19:53:51.479Z,14.04
2019-03-27T19:56:20.609Z,14.08
2019-03-27T19:58:49.772Z,13.71
2019-03-27T20:01:18.963Z,14.05
2019-03-27T20:03:48.118Z,13.95
2019-03-27T20:06:17.340Z,14.19
2019-03-27T20:08:46.487Z,14.07
2019-03-27T20:11:15.874Z,14.12
2019-03-27T20:13:44.996Z,14.16
2019-03-27T20:16:14.151Z,13.91
2019-03-27T20:18:43.264Z,13.32
2019-03-27T20:21:12.480Z,13.42
2019-03-27T20:23:41.620Z,13.38
2019-03-27T20:26:10.776Z,14.02
2019-03-27T20:28:39.929Z,13.96
2019-03-27T20:31:09.070Z,13.87
2019-03-27T20:33:38.401Z,13.68
2019-03-27T20:36:07.542Z,13.46
2019-03-27T20:38:36.672Z,13.37
2019-03-27T20:41:05.868Z,13.57
2019-03-27T20:43:35.010Z,13.31
2019-03-27T20:46:04.307Z,13.41
2019-03-27T20:48:33.442Z,13.55
2019-03-27T20:51:02.851Z,13.31
2019-03-27T20:53:31.998Z,13.40
2019-03-27T20:56:01.395Z,13.47
2019-03-27T20:58:30.542Z,13.53
2019-03-27T21:00:59.675Z,13.42
2019-03-27T21:03:29.215Z,13.63
2019-03-27T21:05:59.074Z,13.54
2019-03-27T21:08:28.552Z,13.33
2019-03-27T21:10:58.002Z,13.19
2019-03-27T21:13:27.848Z,13.29
2019-03-27T21:15:57.019Z,12.96
2019-03-27T21:18:27.101Z,13.04
2019-03-27T21:20:57.168Z,13.47
2019-03-27T21:23:26.379Z,13.24
2019-03-27T21:25:55.576Z,13.38
2019-03-27T21:28:24.994Z,13.46
2019-03-27T21:30:54.115Z,13.67
2019-03-27T21:33:23.277Z,13.84
2019-03-27T21:35:53.109Z,13.60
2019-03-27T21:38:22.381Z,13.37
2019-03-27T21:40:52.246Z,13.41
2019-03-27T21:43:22.085Z,13.66
2019-03-27T21:45:51.485Z,13.03
2019-03-27T21:48:20.669Z,12.69
2019-03-27T21:50:49.809Z,12.88
2019-03-27T21:53:18.935Z,12.95
2019-03-27T21:55:48.332Z,12.95
2019-03-27T21:58:17.478Z,13.56
2019-03-27T22:00:46.602Z,13.35
2019-03-27T22:03:16.028Z,13.79
2019-03-27T22:05:45.174Z,13.41
2019-03-27T22:08:14.541Z,13.75
2019-03-27T22:10:44.388Z,13.60
2019-03-27T22:13:13.582Z,13.61
2019-03-27T22:15:42.922Z,13.84
2019-03-27T22:18:13.005Z,14.02
2019-03-27T22:20:42.429Z,14.30
2019-03-27T22:23:11.571Z,13.99
2019-03-27T22:25:40.958Z,13.86
2019-03-27T22:28:10.115Z,13.91
2019-03-27T22:30:40.022Z,13.87
2019-03-27T22:33:09.165Z,13.88
2019-03-27T22:35:39.019Z,13.67
2019-03-27T22:38:08.395Z,13.83
2019-03-27T22:40:38.013Z,13.48
2019-03-27T22:43:07.156Z,13.46
2019-03-27T22:45:36.368Z,13.18
2019-03-27T22:48:05.567Z,13.79
2019-03-27T22:50:34.960Z,13.29
2019-03-27T22:53:04.253Z,13.86
2019-03-27T22:55:33.407Z,13.58
2019-03-27T22:58:02.570Z,13.42
2019-03-27T23:00:45.746Z,13.70
2019-03-27T23:03:18.420Z,14.44
2019-03-27T23:05:47.315Z,14.02
2019-03-27T23:08:16.496Z,14.30
2019-03-27T23:10:45.643Z,14.54
2019-03-27T23:13:14.857Z,14.47
2019-03-27T23:15:44.942Z,14.23
2019-03-27T23:18:14.156Z,14.23
2019-03-27T23:20:43.779Z,13.72
2019-03-27T23:23:13.621Z,13.57
2019-03-27T23:25:43.012Z,13.53
2019-03-27T23:28:12.143Z,13.91
2019-03-27T23:30:41.297Z,14.21
2019-03-27T23:33:10.449Z,14.02
2019-03-27T23:35:40.499Z,13.94
2019-03-27T23:38:09.876Z,14.22
2019-03-27T23:40:39.037Z,13.95
2019-03-27T23:43:09.212Z,14.16
2019-03-27T23:45:38.362Z,14.06
2019-03-27T23:48:07.514Z,14.18
2019-03-27T23:50:36.690Z,14.52
2019-03-27T23:53:06.096Z,14.70
2019-03-27T23:55:35.493Z,14.83
2019-03-27T23:58:04.717Z,14.23
